createdAt,value
2023-05-06T00:01:46.700Z,15.60
2023-05-06T00:04:33.721Z,15.38
2023-05-06T00:07:07.003Z,16.48
2023-05-06T00:10:00.633Z,15.43
2023-05-06T00:12:54.690Z,15.88
2023-05-06T00:15:41.675Z,15.75
2023-05-06T00:18:15.315Z,14.68
2023-05-06T00:21:01.615Z,16.42
2023-05-06T00:23:34.756Z,14.43
2023-05-06T00:26:22.615Z,15.85
2023-05-06T00:29:02.624Z,14.32
2023-05-06T00:31:49.648Z,14.48
2023-05-06T00:34:22.745Z,13.95
2023-05-06T00:37:09.632Z,14.88
2023-05-06T00:39:49.646Z,14.63
2023-05-06T00:42:36.668Z,15.57
2023-05-06T00:45:16.658Z,15.00
2023-05-06T00:48:04.684Z,15.57
2023-05-06T00:50:40.747Z,15.30
2023-05-06T00:53:30.625Z,14.80
2023-05-06T00:56:10.646Z,16.27
2023-05-06T00:59:04.640Z,15.43
2023-05-06T01:01:58.645Z,15.18
2023-05-06T01:04:52.687Z,15.68
2023-05-06T01:07:45.657Z,16.20
2023-05-06T01:10:40.753Z,15.00
2023-05-06T01:13:39.654Z,15.77
2023-05-06T01:16:22.674Z,15.90
2023-05-06T01:19:15.683Z,15.93
2023-05-06T01:21:59.682Z,15.80
2023-05-06T01:25:00.661Z,15.45
2023-05-06T01:27:54.656Z,14.00
2023-05-06T01:30:56.674Z,15.60
2023-05-06T01:33:56.668Z,14.43
2023-05-06T01:36:56.672Z,14.75
2023-05-06T01:39:36.780Z,14.48
2023-05-06T01:42:24.659Z,15.43
2023-05-06T01:44:59.813Z,15.15
2023-05-06T01:47:47.721Z,14.45
2023-05-06T01:50:21.781Z,15.43
2023-05-06T01:53:09.689Z,14.70
2023-05-06T01:55:42.776Z,14.30
2023-05-06T01:58:29.668Z,14.60
2023-05-06T02:01:02.776Z,15.90
2023-05-06T02:03:49.824Z,13.63
2023-05-06T02:06:22.805Z,14.90
2023-05-06T02:09:09.690Z,14.50
2023-05-06T02:11:42.814Z,14.75
2023-05-06T02:14:29.681Z,14.45
2023-05-06T02:17:03.588Z,15.70
2023-05-06T02:19:50.723Z,14.55
2023-05-06T02:22:23.788Z,14.60
2023-05-06T02:25:11.003Z,15.50
2023-05-06T02:27:51.707Z,14.88
2023-05-06T02:30:38.684Z,16.40
2023-05-06T02:33:11.779Z,15.70
2023-05-06T02:35:58.674Z,16.05
2023-05-06T02:38:32.786Z,15.02
2023-05-06T02:41:19.699Z,15.25
2023-05-06T02:43:52.777Z,14.77
2023-05-06T02:46:41.733Z,15.63
2023-05-06T02:49:14.777Z,15.50
2023-05-06T02:52:01.713Z,15.13
2023-05-06T02:54:41.694Z,16.10
2023-05-06T02:57:21.691Z,16.95
2023-05-06T03:00:01.696Z,15.25
2023-05-06T03:02:34.814Z,16.08
2023-05-06T03:05:21.723Z,15.98
2023-05-06T03:07:55.308Z,16.25
2023-05-06T03:10:41.724Z,17.17
2023-05-06T03:13:14.961Z,16.10
2023-05-06T03:16:01.678Z,16.05
2023-05-06T03:18:34.804Z,17.98
2023-05-06T03:21:21.744Z,17.08
2023-05-06T03:24:01.720Z,16.70
2023-05-06T03:26:48.690Z,16.13
2023-05-06T03:29:28.731Z,15.48
2023-05-06T03:32:15.705Z,16.65
2023-05-06T03:34:55.710Z,16.52
2023-05-06T03:37:42.711Z,16.80
2023-05-06T03:40:22.717Z,16.65
2023-05-06T03:43:16.723Z,18.10
2023-05-06T03:46:04.734Z,16.92
2023-05-06T03:48:37.798Z,16.27
2023-05-06T03:51:24.738Z,15.57
2023-05-06T03:53:57.818Z,16.75
2023-05-06T03:56:44.756Z,15.70
2023-05-06T03:59:17.851Z,16.30
2023-05-06T04:02:04.740Z,13.75
2023-05-06T04:04:38.075Z,14.68
2023-05-06T04:07:24.720Z,14.45
2023-05-06T04:09:57.920Z,14.50
2023-05-06T04:12:44.805Z,14.27
2023-05-06T04:15:24.728Z,14.90
2023-05-06T04:18:18.793Z,16.02
2023-05-06T04:21:06.722Z,15.32
2023-05-06T04:23:46.741Z,15.70
2023-05-06T04:26:40.722Z,15.93
2023-05-06T04:29:34.748Z,16.80
2023-05-06T04:32:23.725Z,19.23
2023-05-06T04:34:57.287Z,18.02
2023-05-06T04:37:43.730Z,16.77
2023-05-06T04:40:18.828Z,15.38
2023-05-06T04:43:05.855Z,16.35
2023-05-06T04:45:40.221Z,17.40
2023-05-06T04:48:30.752Z,17.33
2023-05-06T04:51:06.631Z,17.05
2023-05-06T04:53:53.773Z,15.93
2023-05-06T04:56:26.871Z,16.58
2023-05-06T04:59:13.771Z,18.25
2023-05-06T05:01:53.752Z,19.25
2023-05-06T05:04:47.754Z,17.88
2023-05-06T05:07:34.747Z,16.45
2023-05-06T05:10:12.066Z,17.38
2023-05-06T05:12:58.783Z,17.48
2023-05-06T05:15:38.755Z,18.45
2023-05-06T05:18:32.846Z,17.17
2023-05-06T05:21:19.789Z,17.13
2023-05-06T05:23:52.904Z,18.80
2023-05-06T05:26:39.733Z,18.65
2023-05-06T05:29:19.749Z,19.85
2023-05-06T05:32:13.806Z,19.20
2023-05-06T05:35:00.790Z,18.05
2023-05-06T05:37:33.881Z,18.83
2023-05-06T05:40:20.753Z,18.52
2023-05-06T05:42:53.937Z,18.50
2023-05-06T05:45:40.766Z,19.77
2023-05-06T05:48:20.807Z,19.45
2023-05-06T05:51:17.758Z,19.35
2023-05-06T05:54:11.812Z,17.92
2023-05-06T05:57:05.774Z,16.92
2023-05-06T05:59:59.782Z,16.33
2023-05-06T06:02:47.910Z,16.77
2023-05-06T06:05:21.027Z,16.17
2023-05-06T06:08:07.778Z,17.13
2023-05-06T06:10:41.937Z,15.95
2023-05-06T06:13:29.147Z,16.95
2023-05-06T06:16:03.961Z,17.33
2023-05-06T06:18:50.772Z,12.43
2023-05-06T06:21:30.776Z,12.70
2023-05-06T06:24:19.819Z,16.60
2023-05-06T06:26:59.796Z,16.23
2023-05-06T06:29:53.785Z,17.02
2023-05-06T06:32:40.836Z,17.42
2023-05-06T06:35:15.000Z,17.13
2023-05-06T06:38:01.780Z,17.75
2023-05-06T06:40:41.809Z,17.48
2023-05-06T06:43:35.812Z,16.65
2023-05-06T06:46:22.876Z,16.00
2023-05-06T06:48:55.898Z,16.23
2023-05-06T06:51:42.783Z,16.48
2023-05-06T06:54:15.899Z,16.85
2023-05-06T06:57:03.804Z,15.93
2023-05-06T06:59:36.910Z,18.10
2023-05-06T07:02:23.836Z,16.10
2023-05-06T07:05:03.836Z,17.60
2023-05-06T07:07:57.812Z,16.90
2023-05-06T07:10:51.805Z,17.10
2023-05-06T07:13:38.827Z,17.15
2023-05-06T07:16:18.848Z,17.20
2023-05-06T07:19:05.826Z,18.17
2023-05-06T07:21:45.808Z,17.23
2023-05-06T07:24:39.830Z,17.80
2023-05-06T07:27:36.815Z,17.65
2023-05-06T07:30:25.837Z,16.48
2023-05-06T07:32:59.015Z,16.40
2023-05-06T07:35:45.815Z,17.05
2023-05-06T07:38:25.822Z,16.50
2023-05-06T07:41:12.809Z,17.67
2023-05-06T07:43:52.815Z,16.17
2023-05-06T07:46:46.887Z,16.15
2023-05-06T07:49:34.825Z,16.88
2023-05-06T07:52:07.951Z,17.58
2023-05-06T07:54:54.856Z,17.40
2023-05-06T07:57:30.992Z,18.00
2023-05-06T08:00:18.841Z,18.05
2023-05-06T08:02:58.912Z,17.08
2023-05-06T08:05:52.854Z,18.10
2023-05-06T08:08:39.837Z,17.30
2023-05-06T08:11:12.960Z,17.92
2023-05-06T08:13:59.840Z,17.60
2023-05-06T08:16:33.021Z,17.33
2023-05-06T08:19:19.884Z,17.38
2023-05-06T08:21:54.166Z,16.02
2023-05-06T08:24:40.850Z,17.30
2023-05-06T08:27:13.936Z,16.95
2023-05-06T08:30:00.881Z,16.85
2023-05-06T08:32:33.972Z,16.80
2023-05-06T08:35:20.867Z,17.85
2023-05-06T08:37:53.982Z,16.38
2023-05-06T08:40:41.853Z,17.55
2023-05-06T08:43:20.022Z,16.67
2023-05-06T08:46:06.950Z,15.90
2023-05-06T08:48:46.938Z,15.43
2023-05-06T08:51:36.884Z,17.45
2023-05-06T08:54:17.863Z,15.68
2023-05-06T08:57:15.915Z,17.35
2023-05-06T09:00:09.882Z,17.55
2023-05-06T09:02:57.030Z,17.23
2023-05-06T09:05:30.049Z,16.38
2023-05-06T09:08:17.875Z,18.05
2023-05-06T09:10:53.015Z,17.70
2023-05-06T09:13:39.886Z,16.92
2023-05-06T09:16:13.070Z,19.48
2023-05-06T09:18:59.873Z,18.77
2023-05-06T09:21:43.105Z,17.23
2023-05-06T09:24:30.907Z,17.98
2023-05-06T09:27:04.429Z,17.58
2023-05-06T09:30:06.929Z,16.27
2023-05-06T09:32:42.085Z,17.02
2023-05-06T09:35:34.903Z,17.60
2023-05-06T09:38:14.887Z,15.20
2023-05-06T09:41:02.900Z,14.88
2023-05-06T09:43:37.596Z,14.68
2023-05-06T09:46:23.917Z,15.70
2023-05-06T09:49:05.921Z,15.02
2023-05-06T09:52:01.952Z,16.33
2023-05-06T09:54:49.926Z,16.58
2023-05-06T09:57:31.031Z,15.40
2023-05-06T10:00:19.917Z,16.23
2023-05-06T10:03:01.067Z,15.93
2023-05-06T10:05:54.913Z,15.13
2023-05-06T10:08:42.946Z,16.20
2023-05-06T10:11:22.911Z,16.15
2023-05-06T10:14:17.945Z,14.98
2023-05-06T10:17:05.971Z,14.95
2023-05-06T10:19:40.089Z,16.85
2023-05-06T10:22:51.953Z,15.95
2023-05-06T10:25:44.861Z,16.98
2023-05-06T10:28:31.971Z,16.15
2023-05-06T10:31:06.099Z,16.75
2023-05-06T10:33:57.936Z,17.15
2023-05-06T10:36:33.666Z,17.15
2023-05-06T10:39:20.930Z,16.60
2023-05-06T10:41:55.077Z,16.73
2023-05-06T10:45:04.939Z,16.55
2023-05-06T10:48:11.006Z,18.05
2023-05-06T10:51:04.967Z,17.23
2023-05-06T10:54:15.955Z,19.10
2023-05-06T10:57:10.004Z,19.73
2023-05-06T10:59:56.958Z,18.80
2023-05-06T11:02:37.123Z,17.95
2023-05-06T11:05:31.007Z,17.80
2023-05-06T11:08:18.000Z,17.77
2023-05-06T11:10:58.009Z,17.88
2023-05-06T11:13:44.990Z,18.80
2023-05-06T11:17:00.997Z,17.60
2023-05-06T11:19:50.967Z,18.05
2023-05-06T11:22:53.984Z,19.42
2023-05-06T11:25:54.989Z,20.27
2023-05-06T11:28:42.994Z,19.15
2023-05-06T11:31:24.008Z,16.92
2023-05-06T11:34:20.972Z,18.10
2023-05-06T11:37:21.041Z,18.95
2023-05-06T11:40:07.996Z,18.15
2023-05-06T11:42:48.005Z,17.75
2023-05-06T11:45:47.071Z,20.13
2023-05-06T11:48:27.975Z,19.33
2023-05-06T11:51:21.981Z,18.42
2023-05-06T11:54:16.991Z,17.80
2023-05-06T11:57:04.980Z,19.27
2023-05-06T11:59:58.993Z,16.35
2023-05-06T12:02:53.090Z,16.35
2023-05-06T12:05:41.014Z,15.65
2023-05-06T12:08:27.369Z,20.95
2023-05-06T12:11:23.001Z,18.92
2023-05-06T12:14:20.051Z,17.98
2023-05-06T12:17:07.011Z,19.48
2023-05-06T12:19:47.182Z,18.63
2023-05-06T12:22:33.994Z,17.05
2023-05-06T12:25:27.050Z,18.00
2023-05-06T12:28:24.070Z,19.70
2023-05-06T12:31:04.012Z,18.52
2023-05-06T12:34:01.039Z,19.48
2023-05-06T12:36:57.008Z,18.45
2023-05-06T12:39:45.014Z,16.23
2023-05-06T12:42:34.016Z,17.52
2023-05-06T12:45:21.006Z,15.50
2023-05-06T12:48:06.860Z,15.75
2023-05-06T12:50:54.015Z,14.88
2023-05-06T12:53:46.014Z,14.25
2023-05-06T12:56:40.062Z,13.20
2023-05-06T12:59:27.053Z,14.85
2023-05-06T13:02:01.273Z,15.40
2023-05-06T13:04:48.019Z,14.35
2023-05-06T13:07:22.514Z,14.00
2023-05-06T13:10:16.027Z,13.73
2023-05-06T13:13:10.186Z,15.77
2023-05-06T13:16:06.026Z,14.43
2023-05-06T13:19:00.046Z,15.52
2023-05-06T13:21:48.038Z,14.82
2023-05-06T13:24:21.395Z,13.63
2023-05-06T13:27:09.125Z,13.25
2023-05-06T13:29:42.185Z,13.95
2023-05-06T13:32:29.068Z,15.05
2023-05-06T13:35:04.471Z,15.05
2023-05-06T13:37:51.046Z,14.73
2023-05-06T13:40:24.186Z,14.00
2023-05-06T13:43:11.062Z,13.90
2023-05-06T13:45:46.905Z,14.60
2023-05-06T13:48:34.041Z,13.82
2023-05-06T13:51:07.616Z,14.52
2023-05-06T13:53:54.072Z,14.38
2023-05-06T13:56:34.087Z,15.88
2023-05-06T13:59:21.074Z,14.55
2023-05-06T14:01:55.922Z,14.73
2023-05-06T14:04:43.138Z,14.35
2023-05-06T14:07:16.190Z,14.15
2023-05-06T14:10:10.082Z,13.70
2023-05-06T14:12:58.085Z,14.20
2023-05-06T14:15:31.147Z,13.32
2023-05-06T14:18:18.078Z,13.63
2023-05-06T14:20:51.142Z,13.60
2023-05-06T14:23:39.100Z,14.32
2023-05-06T14:26:12.185Z,14.15
2023-05-06T14:28:59.082Z,14.07
2023-05-06T14:31:39.098Z,15.10
2023-05-06T14:34:26.079Z,16.13
2023-05-06T14:37:00.203Z,16.52
2023-05-06T14:39:47.073Z,15.20
2023-05-06T14:42:27.093Z,15.15
2023-05-06T14:45:22.088Z,15.50
2023-05-06T14:48:16.125Z,16.10
2023-05-06T14:51:03.086Z,14.60
2023-05-06T14:53:36.428Z,14.65
2023-05-06T14:56:23.101Z,14.98
2023-05-06T14:59:04.160Z,15.73
2023-05-06T15:01:58.130Z,16.42
2023-05-06T15:04:52.096Z,15.85
2023-05-06T15:07:46.095Z,15.88
2023-05-06T15:10:40.102Z,16.00
2023-05-06T15:13:27.130Z,16.08
2023-05-06T15:16:09.046Z,17.33
2023-05-06T15:19:04.115Z,17.25
2023-05-06T15:21:51.089Z,17.40
2023-05-06T15:24:24.287Z,17.30
2023-05-06T15:27:11.116Z,18.63
2023-05-06T15:29:52.105Z,18.27
2023-05-06T15:32:39.143Z,17.60
2023-05-06T15:35:20.322Z,17.70
2023-05-06T15:38:10.110Z,16.67
2023-05-06T15:40:52.150Z,17.00
2023-05-06T15:43:46.095Z,17.05
2023-05-06T15:46:41.201Z,17.38
2023-05-06T15:52:28.130Z,17.02
2023-05-06T15:55:08.097Z,16.67
2023-05-06T15:58:02.109Z,17.13
2023-05-06T16:00:50.108Z,17.63
2023-05-06T16:03:30.307Z,16.92
2023-05-06T16:06:25.126Z,18.30
2023-05-06T16:09:19.140Z,18.27
2023-05-06T16:12:16.192Z,17.27
2023-05-06T16:15:10.127Z,20.70
2023-05-06T16:18:05.229Z,24.35
2023-05-06T16:20:52.414Z,23.92
2023-05-06T16:23:33.127Z,21.42
2023-05-06T16:26:21.151Z,17.33
2023-05-06T16:29:01.150Z,18.55
2023-05-06T16:31:48.178Z,19.58
2023-05-06T16:34:22.242Z,20.35
2023-05-06T16:37:09.118Z,20.63
2023-05-06T16:39:49.150Z,20.98
2023-05-06T16:42:36.175Z,20.38
2023-05-06T16:45:09.296Z,20.05
2023-05-06T16:47:56.260Z,19.02
2023-05-06T16:50:29.356Z,19.15
2023-05-06T16:53:16.142Z,19.73
2023-05-06T16:56:03.540Z,20.85
2023-05-06T16:58:50.206Z,20.90
2023-05-06T17:01:30.189Z,19.05
2023-05-06T17:04:24.196Z,19.17
2023-05-06T17:07:11.459Z,22.40
2023-05-06T17:09:45.337Z,24.55
2023-05-06T17:12:33.158Z,20.27
2023-05-06T17:15:13.167Z,20.45
2023-05-06T17:18:00.265Z,18.92
2023-05-06T17:20:54.236Z,19.75
2023-05-06T17:23:36.196Z,19.40
2023-05-06T17:26:16.202Z,20.13
2023-05-06T17:28:57.212Z,31.90
2023-05-06T17:31:51.215Z,34.50
2023-05-06T17:34:45.170Z,28.85
2023-05-06T17:37:32.195Z,23.58
2023-05-06T17:40:07.109Z,21.10
2023-05-06T17:42:47.155Z,20.27
2023-05-06T17:45:28.602Z,19.73
2023-05-06T17:48:08.251Z,19.83
2023-05-06T17:50:49.147Z,20.48
2023-05-06T17:53:31.566Z,19.85
2023-05-06T17:56:11.235Z,20.30
2023-05-06T17:58:45.645Z,21.98
2023-05-06T18:01:32.255Z,21.48
2023-05-06T18:04:12.318Z,21.95
2023-05-06T18:06:59.200Z,22.70
2023-05-06T18:09:39.226Z,21.35
2023-05-06T18:12:33.218Z,22.58
2023-05-06T18:15:20.210Z,27.00
2023-05-06T18:18:00.255Z,25.90
2023-05-06T18:20:54.202Z,24.83
2023-05-06T18:23:41.292Z,25.20
2023-05-06T18:26:35.358Z,24.85
2023-05-06T18:29:28.204Z,22.42
2023-05-06T18:32:01.401Z,23.45
2023-05-06T18:34:48.204Z,24.52
2023-05-06T18:37:21.383Z,24.08
2023-05-06T18:40:08.222Z,25.38
2023-05-06T18:42:49.221Z,25.63
2023-05-06T18:45:44.238Z,23.55
2023-05-06T18:48:31.227Z,23.83
2023-05-06T18:51:28.237Z,24.85
2023-05-06T18:54:16.306Z,24.15
2023-05-06T18:56:51.058Z,26.42
2023-05-06T18:59:38.206Z,27.92
2023-05-06T19:02:24.245Z,29.45
2023-05-06T19:05:23.232Z,30.42
2023-05-06T19:08:12.220Z,26.83
2023-05-06T19:10:45.439Z,28.75
2023-05-06T19:13:33.244Z,31.85
2023-05-06T19:16:06.665Z,28.88
2023-05-06T19:18:54.217Z,27.95
2023-05-06T19:21:47.357Z,23.75
2023-05-06T19:24:36.244Z,23.73
2023-05-06T19:27:18.243Z,24.05
2023-05-06T19:30:05.297Z,22.30
2023-05-06T19:32:58.388Z,23.20
2023-05-06T19:35:46.257Z,23.92
2023-05-06T19:38:19.867Z,23.17
2023-05-06T19:41:06.240Z,23.65
2023-05-06T19:43:46.450Z,25.85
2023-05-06T19:46:40.394Z,25.23
2023-05-06T19:49:27.284Z,23.70
2023-05-06T19:52:02.441Z,24.27
2023-05-06T19:54:49.309Z,23.52
2023-05-06T19:57:29.296Z,25.52
2023-05-06T20:00:26.311Z,25.92
2023-05-06T20:03:13.643Z,25.00
2023-05-06T20:05:57.783Z,25.85
2023-05-06T20:08:46.116Z,26.27
2023-05-06T20:11:19.397Z,24.77
2023-05-06T20:14:06.304Z,25.25
2023-05-06T20:16:46.454Z,24.75
2023-05-06T20:19:40.305Z,24.40
2023-05-06T20:22:27.290Z,21.88
2023-05-06T20:25:25.287Z,24.80
2023-05-06T20:28:16.134Z,24.35
2023-05-06T20:30:49.454Z,23.15
2023-05-06T20:33:37.282Z,23.02
2023-05-06T20:36:18.307Z,27.67
2023-05-06T20:39:07.302Z,27.35
2023-05-06T20:41:47.315Z,26.90
2023-05-06T20:44:34.310Z,24.27
2023-05-06T20:47:12.396Z,25.53
2023-05-06T20:50:00.311Z,25.95
2023-05-06T20:52:48.348Z,23.20
2023-05-06T20:55:37.362Z,22.77
2023-05-06T20:58:17.266Z,23.83
2023-05-06T21:00:57.340Z,21.48
2023-05-06T21:03:38.315Z,22.45
2023-05-06T21:06:11.472Z,23.83
2023-05-06T21:09:01.301Z,24.10
2023-05-06T21:11:34.428Z,25.48
2023-05-06T21:14:24.344Z,23.27
2023-05-06T21:17:05.298Z,24.42
2023-05-06T21:19:52.311Z,24.50
2023-05-06T21:22:35.322Z,24.80
2023-05-06T21:25:29.317Z,24.45
2023-05-06T21:28:16.306Z,24.30
2023-05-06T21:30:49.473Z,23.90
2023-05-06T21:33:37.327Z,24.02
2023-05-06T21:36:18.306Z,24.73
2023-05-06T21:39:25.333Z,24.00
2023-05-06T21:42:12.305Z,23.75
2023-05-06T21:44:54.303Z,22.80
2023-05-06T21:47:41.344Z,23.00
2023-05-06T21:50:22.303Z,22.33
2023-05-06T21:53:18.301Z,22.75
2023-05-06T21:56:12.307Z,23.02
2023-05-06T21:59:00.352Z,22.00
2023-05-06T22:01:35.993Z,21.83
2023-05-06T22:04:24.397Z,23.95
2023-05-06T22:07:04.347Z,22.63
2023-05-06T22:09:58.350Z,22.48
2023-05-06T22:12:54.390Z,23.52
2023-05-06T22:15:41.442Z,25.17
2023-05-06T22:18:14.418Z,25.00
2023-05-06T22:21:03.453Z,24.00
2023-05-06T22:23:36.500Z,23.73
2023-05-06T22:26:23.351Z,24.52
2023-05-06T22:29:04.358Z,23.45
2023-05-06T22:31:58.431Z,27.90
2023-05-06T22:34:52.376Z,27.80
2023-05-06T22:37:39.409Z,30.15
2023-05-06T22:40:20.349Z,28.13
2023-05-06T22:43:14.356Z,27.10
2023-05-06T22:46:01.365Z,27.10
2023-05-06T22:48:34.695Z,30.88
2023-05-06T22:51:25.395Z,32.42
2023-05-06T22:53:58.417Z,31.10
2023-05-06T22:56:45.481Z,30.48
2023-05-06T22:59:18.466Z,29.63
2023-05-06T23:02:05.298Z,27.83
2023-05-06T23:04:39.019Z,29.77
2023-05-06T23:07:25.344Z,27.88
2023-05-06T23:10:06.406Z,28.30
2023-05-06T23:13:00.458Z,26.33
2023-05-06T23:15:47.331Z,26.60
2023-05-06T23:18:27.480Z,26.38
2023-05-06T23:21:21.364Z,25.83
2023-05-06T23:24:15.402Z,24.25
2023-05-06T23:27:02.434Z,24.52
2023-05-06T23:29:44.664Z,25.13
2023-05-06T23:32:38.379Z,24.80
2023-05-06T23:35:25.364Z,25.75
2023-05-06T23:38:05.365Z,28.38
2023-05-06T23:40:59.343Z,29.00
2023-05-06T23:43:46.408Z,25.90
2023-05-06T23:46:26.445Z,26.80
2023-05-06T23:49:22.658Z,24.77
2023-05-06T23:52:09.349Z,25.33
2023-05-06T23:54:49.380Z,24.50
2023-05-06T23:57:43.356Z,23.38
